Time;durP1;ratioP1;P1;durP2;ratioP2;P2;SDS_P1;SDS_P2;PMS_P1;PMS_P2;Temp;Humidity;BMP_temperature;BMP_pressure;BME280_temperature;BME280_humidity;BME280_pressure;Samples;Min_cycle;Max_cycle;Signal;HPM_P1;HPM_P2
2023/09/24 00:02:53;;;;;;;2.17;0.80;;;22.00;81.10;;;;;;10498336;28;20048;-41
2023/09/24 00:07:55;;;;;;;1.27;0.68;;;22.20;79.60;;;;;;10497744;28;20052;-32
2023/09/24 00:12:58;;;;;;;3.30;0.93;;;22.30;78.90;;;;;;10495592;28;20056;-32
2023/09/24 00:18:00;;;;;;;2.58;0.77;;;22.30;78.90;;;;;;10496006;28;20548;-34
2023/09/24 00:23:03;;;;;;;2.28;0.77;;;22.30;79.60;;;;;;10490202;28;20044;-32
2023/09/24 00:28:07;;;;;;;2.85;0.80;;;22.30;79.60;;;;;;10498640;28;20080;-37
2023/09/24 00:33:09;;;;;;;6.15;1.13;;;21.90;81.40;;;;;;10495592;28;20554;-36
2023/09/24 00:38:11;;;;;;;9.10;0.93;;;21.70;79.80;;;;;;10496854;28;20108;-33
2023/09/24 00:43:28;;;;;;;2.40;0.65;;;22.10;80.40;;;;;;10496978;28;20451;-32
2023/09/24 00:48:31;;;;;;;8.48;1.00;;;22.10;80.10;;;;;;10496269;28;20068;-38
2023/09/24 00:53:33;;;;;;;1.80;0.70;;;22.10;80.20;;;;;;10491041;28;20074;-32
2023/09/24 00:58:39;;;;;;;5.20;1.10;;;22.00;80.50;;;;;;10492427;28;20171;-34
2023/09/24 01:03:40;;;;;;;1.63;0.70;;;22.00;80.40;;;;;;10493152;28;20044;-37
2023/09/24 01:08:43;;;;;;;1.58;0.90;;;22.00;81.30;;;;;;10503203;28;20057;-39
2023/09/24 01:13:46;;;;;;;5.18;1.00;;;22.10;79.00;;;;;;10486585;28;20059;-34
2023/09/24 01:18:49;;;;;;;2.22;0.68;;;22.10;79.30;;;;;;10490510;28;20076;-43
2023/09/24 01:23:52;;;;;;;4.53;0.88;;;22.20;78.50;;;;;;10491919;28;20060;-34
2023/09/24 01:28:54;;;;;;;3.65;0.95;;;22.10;79.10;;;;;;10494931;28;20490;-42
2023/09/24 01:33:56;;;;;;;3.42;0.65;;;21.60;82.50;;;;;;10494451;28;20044;-34
2023/09/24 01:38:59;;;;;;;2.58;1.00;;;22.00;80.00;;;;;;10488271;28;20400;-32
2023/09/24 01:44:02;;;;;;;2.92;0.98;;;22.00;79.50;;;;;;10500339;28;20098;-37
2023/09/24 01:49:04;;;;;;;2.00;0.75;;;21.90;78.50;;;;;;10493731;28;20056;-33
2023/09/24 01:54:07;;;;;;;2.92;0.90;;;21.60;81.90;;;;;;10487620;28;20040;-31
2023/09/24 01:59:09;;;;;;;1.00;0.60;;;21.30;82.50;;;;;;10492352;28;20053;-35
2023/09/24 02:04:11;;;;;;;2.85;1.00;;;21.90;79.70;;;;;;10492670;28;20110;-33
2023/09/24 02:09:16;;;;;;;1.42;0.63;;;22.00;78.50;;;;;;10492659;28;20075;-32
2023/09/24 02:14:19;;;;;;;2.92;0.93;;;22.00;78.40;;;;;;10491403;28;20106;-33
2023/09/24 02:19:24;;;;;;;1.65;0.82;;;22.00;78.40;;;;;;10483689;28;20567;-32
2023/09/24 02:24:27;;;;;;;2.35;0.88;;;22.10;77.80;;;;;;10489136;28;20071;-37
2023/09/24 02:29:29;;;;;;;1.85;0.90;;;22.00;77.90;;;;;;10499851;28;20139;-34
2023/09/24 02:34:31;;;;;;;4.05;0.90;;;22.00;77.70;;;;;;10488688;28;20052;-35
2023/09/24 02:39:34;;;;;;;2.60;0.75;;;21.50;80.90;;;;;;10490348;28;20125;-32
2023/09/24 02:44:36;;;;;;;2.08;0.77;;;21.90;78.70;;;;;;10490123;28;20051;-38
2023/09/24 02:49:38;;;;;;;2.97;0.70;;;21.90;78.40;;;;;;10489505;28;20405;-31
2023/09/24 02:54:41;;;;;;;1.48;0.63;;;21.80;79.20;;;;;;10494142;28;20067;-32
2023/09/24 03:15:29;;;;;;;1.70;0.68;;;21.60;79.00;;;;;;10521190;27;20164;-38
2023/09/24 03:20:31;;;;;;;1.73;0.85;;;21.50;79.50;;;;;;10500988;28;20432;-32
2023/09/24 03:25:34;;;;;;;2.35;1.00;;;21.70;79.10;;;;;;10476392;28;20748;-33
2023/09/24 03:30:37;;;;;;;2.95;0.80;;;21.70;79.00;;;;;;10489861;28;20044;-34
2023/09/24 03:35:40;;;;;;;2.80;0.63;;;21.40;80.40;;;;;;10473362;28;20147;-34
2023/09/24 03:40:42;;;;;;;1.38;0.70;;;21.50;79.60;;;;;;10496157;28;20059;-33
2023/09/24 03:45:45;;;;;;;2.17;0.80;;;21.60;79.00;;;;;;10486191;28;20462;-33
2023/09/24 03:50:47;;;;;;;3.95;0.90;;;21.40;79.60;;;;;;10486117;28;20663;-39
2023/09/24 03:55:49;;;;;;;2.55;1.13;;;21.60;79.30;;;;;;10484132;28;20469;-37
2023/09/24 04:00:53;;;;;;;1.85;0.77;;;21.80;78.20;;;;;;10492957;28;20552;-33
2023/09/24 04:05:57;;;;;;;2.35;0.80;;;21.50;78.40;;;;;;10497320;28;20136;-39
2023/09/24 04:10:59;;;;;;;1.90;0.98;;;21.70;78.30;;;;;;10479035;28;20327;-36
2023/09/24 04:16:09;;;;;;;3.20;1.08;;;21.80;77.40;;;;;;10482808;28;20572;-35
2023/09/24 04:21:16;;;;;;;2.30;0.70;;;21.80;77.30;;;;;;10470585;28;20128;-34
2023/09/24 04:26:20;;;;;;;3.83;0.90;;;21.90;78.10;;;;;;10450276;28;20056;-32
2023/09/24 04:31:23;;;;;;;2.13;0.80;;;21.90;78.10;;;;;;10452366;28;20055;-35
2023/09/24 04:36:25;;;;;;;1.55;0.93;;;21.80;78.00;;;;;;10447031;28;20431;-38
2023/09/24 04:41:27;;;;;;;1.75;0.55;;;21.90;77.90;;;;;;10458778;28;20508;-32
2023/09/24 04:46:30;;;;;;;3.15;0.63;;;21.80;77.80;;;;;;10452017;28;20136;-39
2023/09/24 04:51:34;;;;;;;5.55;0.70;;;21.80;77.70;;;;;;10447753;28;20072;-32
2023/09/24 04:56:36;;;;;;;0.93;0.77;;;21.80;77.90;;;;;;10449085;28;20052;-36
2023/09/24 05:01:39;;;;;;;3.00;0.95;;;21.70;78.10;;;;;;10458161;28;20084;-32
2023/09/24 05:06:41;;;;;;;4.20;1.00;;;21.80;77.80;;;;;;10456329;28;20040;-34
2023/09/24 05:11:43;;;;;;;0.88;0.57;;;21.50;78.80;;;;;;10471265;28;20064;-36
2023/09/24 05:16:47;;;;;;;2.03;0.80;;;21.70;78.30;;;;;;10461283;28;20060;-34
2023/09/24 05:21:49;;;;;;;4.30;1.00;;;21.80;78.20;;;;;;10445636;28;20067;-33
2023/09/24 05:26:51;;;;;;;1.25;0.70;;;21.80;78.10;;;;;;10455164;28;20110;-35
2023/09/24 05:31:54;;;;;;;3.38;1.00;;;21.80;78.30;;;;;;10447181;28;20107;-33
2023/09/24 05:36:56;;;;;;;2.10;0.70;;;21.80;78.30;;;;;;10452340;28;20061;-45
2023/09/24 05:41:58;;;;;;;2.33;0.63;;;21.80;78.30;;;;;;10450212;28;20591;-43
2023/09/24 05:47:01;;;;;;;3.75;0.80;;;21.80;78.30;;;;;;10448681;28;20045;-33
2023/09/24 05:52:04;;;;;;;1.77;0.80;;;21.80;78.50;;;;;;10448975;28;20080;-35
2023/09/24 05:57:05;;;;;;;1.83;0.80;;;21.80;78.40;;;;;;10446127;28;20044;-33
2023/09/24 06:02:10;;;;;;;2.92;0.80;;;21.80;78.60;;;;;;10449932;28;20444;-35
2023/09/24 06:07:12;;;;;;;3.92;1.20;;;21.70;78.70;;;;;;10460988;28;20048;-32
2023/09/24 06:12:14;;;;;;;1.83;0.90;;;21.80;78.60;;;;;;10457126;28;20585;-36
2023/09/24 06:17:17;;;;;;;;;;;21.70;78.50;;;;;;10453577;28;20073;-40
2023/09/24 06:22:19;;;;;;;1.63;0.80;;;21.70;78.70;;;;;;10449989;28;20023;-31
2023/09/24 06:27:22;;;;;;;1.50;1.10;;;21.70;78.40;;;;;;10449954;28;20522;-31
2023/09/24 06:32:28;;;;;;;4.78;0.90;;;21.70;78.50;;;;;;10449392;28;20045;-34
2023/09/24 06:37:30;;;;;;;5.88;0.90;;;21.70;78.40;;;;;;10450801;28;20045;-34
2023/09/24 06:42:32;;;;;;;6.53;1.55;;;21.70;78.20;;;;;;10449896;28;20079;-32
2023/09/24 06:47:36;;;;;;;6.95;1.25;;;21.80;78.40;;;;;;10440392;28;20056;-34
2023/09/24 06:52:39;;;;;;;13.52;1.42;;;21.80;78.80;;;;;;10427578;28;20422;-37
2023/09/24 06:57:41;;;;;;;10.25;2.08;;;21.80;79.80;;;;;;10429129;28;20043;-42
2023/09/24 07:02:44;;;;;;;11.90;1.52;;;21.80;80.00;;;;;;10447414;28;20052;-39
2023/09/24 07:07:47;;;;;;;13.30;1.52;;;21.80;79.80;;;;;;10442328;28;20132;-35
2023/09/24 07:12:48;;;;;;;7.65;1.30;;;21.90;79.90;;;;;;10442176;28;20060;-40
2023/09/24 07:17:52;;;;;;;7.88;1.20;;;21.80;79.50;;;;;;10447644;28;20079;-35
2023/09/24 07:22:54;;;;;;;3.97;1.35;;;21.90;78.80;;;;;;10441600;28;20143;-36
2023/09/24 07:27:56;;;;;;;4.18;1.05;;;22.00;78.20;;;;;;10442309;28;20288;-37
2023/09/24 07:33:00;;;;;;;2.55;1.00;;;21.90;78.10;;;;;;10444930;28;20111;-34
2023/09/24 07:38:02;;;;;;;7.35;1.17;;;21.90;78.10;;;;;;10457005;28;20076;-32
2023/09/24 07:43:04;;;;;;;8.50;2.00;;;21.90;77.80;;;;;;10440419;28;20480;-36
2023/09/24 07:48:10;;;;;;;;;;;21.90;77.50;;;;;;10442373;28;20107;-33
2023/09/24 07:53:12;;;;;;;3.92;1.65;;;21.70;77.20;;;;;;10445901;28;19956;-42
2023/09/24 07:58:14;;;;;;;5.97;0.98;;;21.70;78.60;;;;;;10442988;28;20596;-36
2023/09/24 08:03:17;;;;;;;3.30;1.00;;;21.90;77.40;;;;;;10456299;28;20132;-35
2023/09/24 08:08:19;;;;;;;5.75;1.15;;;21.90;76.50;;;;;;10436854;28;20115;-38
2023/09/24 08:13:22;;;;;;;4.95;1.05;;;22.00;76.60;;;;;;10427803;28;20048;-45
2023/09/24 08:18:26;;;;;;;10.40;1.30;;;21.80;76.60;;;;;;10446152;28;20132;-42
2023/09/24 08:23:28;;;;;;;4.45;1.30;;;21.70;77.60;;;;;;10462084;28;20071;-40
2023/09/24 08:28:30;;;;;;;4.88;1.50;;;21.80;79.60;;;;;;10458216;28;20106;-34
2023/09/24 08:33:33;;;;;;;9.57;1.60;;;21.50;76.60;;;;;;10450333;28;20136;-42
2023/09/24 08:38:35;;;;;;;5.80;1.95;;;21.70;81.80;;;;;;10452202;28;20563;-36
2023/09/24 08:43:42;;;;;;;2.80;1.23;;;21.40;81.10;;;;;;10454923;28;20134;-32
2023/09/24 08:48:47;;;;;;;4.72;1.20;;;21.80;81.90;;;;;;10457260;28;20235;-39
2023/09/24 08:53:51;;;;;;;5.50;1.08;;;21.00;84.10;;;;;;10450804;28;20132;-42
2023/09/24 08:58:53;;;;;;;4.85;0.82;;;21.60;81.40;;;;;;10451131;28;20086;-34
2023/09/24 09:03:58;;;;;;;;;;;22.00;80.90;;;;;;10460053;28;20482;-40
2023/09/24 09:09:01;;;;;;;4.60;1.20;;;21.50;81.30;;;;;;10450117;28;19975;-41
2023/09/24 09:14:03;;;;;;;2.47;1.10;;;21.90;79.50;;;;;;10448527;28;20085;-38
2023/09/24 09:19:08;;;;;;;3.28;0.82;;;21.60;78.80;;;;;;10464208;28;20087;-37
2023/09/24 09:24:20;;;;;;;5.75;1.20;;;21.30;83.30;;;;;;10454713;28;20049;-43
2023/09/24 09:29:23;;;;;;;3.83;1.00;;;21.90;81.10;;;;;;10457902;28;20045;-36
2023/09/24 09:34:28;;;;;;;4.55;1.25;;;22.00;77.10;;;;;;10445994;28;20098;-46
2023/09/24 09:39:30;;;;;;;3.92;0.85;;;21.70;74.70;;;;;;10452787;28;20050;-34
2023/09/24 09:44:33;;;;;;;2.63;1.08;;;21.50;81.80;;;;;;10454417;28;20083;-32
2023/09/24 09:49:41;;;;;;;5.30;1.10;;;21.40;81.90;;;;;;10441717;28;20065;-42
2023/09/24 09:54:45;;;;;;;3.45;1.25;;;21.50;80.50;;;;;;10443767;28;20136;-41
2023/09/24 09:59:48;;;;;;;2.35;1.27;;;22.10;75.60;;;;;;10453438;28;20053;-32
2023/09/24 10:04:53;;;;;;;1.45;0.93;;;21.20;71.20;;;;;;10452260;28;20117;-31
2023/09/24 10:09:55;;;;;;;3.05;1.17;;;22.10;77.70;;;;;;10449926;28;20080;-36
2023/09/24 10:14:57;;;;;;;;;;;22.10;74.70;;;;;;10453536;28;20053;-36
2023/09/24 10:20:08;;;;;;;2.97;1.03;;;22.10;77.20;;;;;;10456746;28;19920;-36
2023/09/24 10:25:34;;;;;;;1.75;0.80;;;22.10;74.50;;;;;;10448273;28;20051;-39
2023/09/24 10:31:03;;;;;;;4.40;0.80;;;22.00;74.90;;;;;;10445693;28;20047;-33
2023/09/24 10:36:22;;;;;;;2.05;0.93;;;21.50;79.50;;;;;;10445026;28;20069;-33
2023/09/24 10:41:24;;;;;;;1.73;0.80;;;21.80;78.10;;;;;;10444331;28;20041;-38
2023/09/24 10:46:26;;;;;;;1.25;0.90;;;22.70;71.90;;;;;;10461949;28;20143;-41
2023/09/24 10:51:29;;;;;;;3.97;1.08;;;22.70;73.20;;;;;;10446104;28;20059;-33
2023/09/24 10:56:31;;;;;;;2.25;0.73;;;22.20;74.50;;;;;;10433844;28;20486;-37
2023/09/24 11:01:33;;;;;;;;;;;22.00;77.10;;;;;;10455969;28;20161;-30
2023/09/24 11:06:36;;;;;;;2.53;1.00;;;22.00;72.40;;;;;;10453933;28;20019;-34
2023/09/24 11:11:39;;;;;;;4.10;1.35;;;21.40;74.90;;;;;;10455514;28;20221;-34
2023/09/24 11:16:42;;;;;;;3.30;1.15;;;21.50;75.50;;;;;;10442460;28;20069;-37
2023/09/24 11:21:45;;;;;;;2.40;1.02;;;22.40;71.10;;;;;;10449638;28;20045;-29
2023/09/24 11:26:47;;;;;;;5.18;1.05;;;21.00;79.00;;;;;;10441472;28;20128;-40
2023/09/24 11:31:51;;;;;;;5.38;1.60;;;22.00;76.60;;;;;;10448678;28;20083;-35
2023/09/24 11:36:57;;;;;;;2.03;1.10;;;22.00;72.20;;;;;;10447827;28;20470;-33
2023/09/24 11:41:59;;;;;;;4.85;1.35;;;22.30;73.90;;;;;;10449269;28;20554;-40
2023/09/24 11:47:00;;;;;;;1.80;0.95;;;21.50;73.20;;;;;;10449434;28;20095;-41
2023/09/24 11:52:09;;;;;;;4.60;1.40;;;22.10;71.70;;;;;;10454828;28;20049;-44
2023/09/24 11:57:11;;;;;;;5.72;1.67;;;21.10;73.30;;;;;;10454923;28;20064;-37
2023/09/24 12:02:13;;;;;;;3.97;1.73;;;21.70;68.00;;;;;;10475614;28;20567;-31
2023/09/24 12:07:16;;;;;;;4.40;1.40;;;22.50;71.30;;;;;;10461390;28;20382;-32
2023/09/24 12:12:18;;;;;;;6.00;1.40;;;21.90;72.90;;;;;;10447085;28;20088;-33
2023/09/24 12:17:20;;;;;;;;;;;22.80;69.30;;;;;;10432426;28;20852;-33
2023/09/24 12:22:23;;;;;;;2.30;1.20;;;22.30;68.00;;;;;;10442285;28;19921;-40
2023/09/24 12:27:28;;;;;;;5.88;1.83;;;22.40;63.20;;;;;;10437734;28;20057;-39
2023/09/24 12:32:30;;;;;;;3.42;1.58;;;21.20;70.00;;;;;;10439658;28;20045;-41
2023/09/24 12:37:35;;;;;;;4.38;1.45;;;21.70;68.20;;;;;;10443907;28;20040;-33
2023/09/24 12:42:38;;;;;;;5.25;1.52;;;22.10;66.80;;;;;;10444000;28;20049;-41
2023/09/24 12:47:40;;;;;;;4.10;1.88;;;22.30;65.00;;;;;;10444959;28;20106;-35
2023/09/24 12:52:45;;;;;;;3.30;1.35;;;22.10;65.50;;;;;;10441867;28;20079;-32
2023/09/24 12:57:47;;;;;;;5.53;1.65;;;22.00;64.20;;;;;;10439139;28;20048;-41
2023/09/24 13:02:49;;;;;;;5.43;1.70;;;22.10;64.10;;;;;;10452547;28;20094;-32
2023/09/24 13:07:52;;;;;;;3.28;1.20;;;22.90;63.80;;;;;;10444490;28;20045;-36
2023/09/24 13:12:54;;;;;;;2.70;1.42;;;23.30;64.10;;;;;;10444140;28;20978;-47
2023/09/24 13:17:55;;;;;;;5.35;1.40;;;23.00;65.60;;;;;;10442304;28;20076;-38
2023/09/24 13:22:59;;;;;;;2.13;1.10;;;23.30;66.30;;;;;;10451727;28;20053;-35
2023/09/24 13:28:01;;;;;;;1.65;0.88;;;23.20;61.60;;;;;;10450156;28;20118;-34
2023/09/24 13:33:03;;;;;;;;;;;23.80;66.30;;;;;;10449907;28;20155;-41
2023/09/24 13:38:07;;;;;;;4.22;1.20;;;23.90;62.10;;;;;;10439426;28;19971;-43
2023/09/24 13:43:09;;;;;;;4.43;1.13;;;23.80;60.30;;;;;;10447020;28;20068;-34
2023/09/24 13:48:11;;;;;;;4.38;0.90;;;23.60;62.00;;;;;;10439926;28;20095;-32
2023/09/24 13:53:15;;;;;;;2.45;1.27;;;24.00;63.30;;;;;;10441896;28;20494;-31
2023/09/24 13:58:17;;;;;;;4.38;1.25;;;23.60;62.20;;;;;;10442005;28;20547;-31
2023/09/24 14:03:19;;;;;;;;;;;24.00;64.20;;;;;;10439533;28;20073;-37
2023/09/24 14:13:46;;;;;;;2.55;1.20;;;24.30;63.30;;;;;;10441565;28;19928;-32
2023/09/24 14:18:47;;;;;;;6.40;1.42;;;24.50;63.50;;;;;;10442137;28;20124;-45
2023/09/24 14:23:51;;;;;;;3.72;1.38;;;24.70;65.10;;;;;;10437210;28;20048;-35
2023/09/24 14:28:53;;;;;;;2.97;1.10;;;25.00;63.60;;;;;;10449507;28;20190;-36
2023/09/24 14:33:56;;;;;;;1.27;0.80;;;25.30;63.00;;;;;;10442107;28;20210;-36
2023/09/24 14:39:02;;;;;;;3.35;1.15;;;25.40;63.40;;;;;;10445104;28;20075;-45
2023/09/24 14:44:08;;;;;;;1.80;0.85;;;26.00;59.70;;;;;;10450653;28;20418;-36
2023/09/24 14:49:11;;;;;;;2.90;1.02;;;25.50;64.30;;;;;;10434413;28;20049;-39
2023/09/24 14:54:14;;;;;;;2.33;1.00;;;25.70;63.70;;;;;;10441253;28;20045;-34
2023/09/24 14:59:16;;;;;;;1.92;0.80;;;25.90;61.50;;;;;;10451915;28;20044;-31
2023/09/24 15:04:18;;;;;;;2.63;0.60;;;25.70;63.90;;;;;;10444582;28;20076;-37
2023/09/24 15:09:21;;;;;;;1.70;0.80;;;26.00;65.60;;;;;;10431975;28;20069;-32
2023/09/24 15:14:25;;;;;;;1.10;0.85;;;26.10;63.10;;;;;;10448534;28;20470;-31
2023/09/24 15:19:27;;;;;;;2.83;1.20;;;26.30;65.90;;;;;;10431756;28;20053;-35
2023/09/24 15:24:30;;;;;;;3.53;0.77;;;26.20;64.20;;;;;;10444465;28;20135;-39
2023/09/24 15:29:32;;;;;;;1.83;0.80;;;26.30;60.40;;;;;;10444770;28;20984;-33
2023/09/24 15:34:34;;;;;;;3.95;1.00;;;26.50;62.20;;;;;;10448577;28;20099;-33
2023/09/24 15:39:37;;;;;;;3.08;0.80;;;26.40;60.50;;;;;;10446784;28;20122;-34
2023/09/24 15:44:39;;;;;;;2.78;0.80;;;26.10;62.30;;;;;;10442113;28;20075;-37
2023/09/24 15:49:41;;;;;;;3.58;1.10;;;26.30;62.10;;;;;;10445342;28;20106;-37
2023/09/24 15:54:44;;;;;;;2.00;0.70;;;26.40;61.40;;;;;;10446502;28;20157;-31
2023/09/24 15:59:46;;;;;;;2.40;0.73;;;26.30;60.90;;;;;;10441042;28;20769;-35
2023/09/24 16:04:49;;;;;;;2.22;0.70;;;26.40;62.90;;;;;;10454743;28;20048;-40
2023/09/24 16:09:52;;;;;;;2.63;0.95;;;26.30;61.20;;;;;;10442833;28;20356;-33
2023/09/24 16:14:54;;;;;;;1.38;0.80;;;26.40;61.90;;;;;;10449979;28;20146;-42
2023/09/24 16:19:56;;;;;;;2.15;0.80;;;26.70;62.60;;;;;;10431316;28;20112;-39
2023/09/24 16:25:01;;;;;;;5.30;1.50;;;26.90;57.70;;;;;;10431797;28;20128;-34
2023/09/24 16:30:03;;;;;;;2.65;1.13;;;26.50;59.90;;;;;;10444864;28;20470;-38
2023/09/24 16:35:05;;;;;;;2.63;1.10;;;26.60;61.60;;;;;;10447181;28;20063;-34
2023/09/24 16:40:11;;;;;;;4.60;1.50;;;26.80;60.90;;;;;;10447590;28;20052;-33
2023/09/24 16:45:13;;;;;;;4.28;1.83;;;26.60;62.10;;;;;;10434810;28;20161;-41
2023/09/24 16:50:15;;;;;;;7.65;1.85;;;26.50;60.80;;;;;;10447940;28;20497;-36
2023/09/24 16:55:18;;;;;;;3.67;1.33;;;26.60;60.60;;;;;;10431188;28;20437;-40
2023/09/24 17:00:21;;;;;;;5.60;2.03;;;26.50;61.40;;;;;;10407827;28;20130;-37
2023/09/24 17:05:23;;;;;;;4.57;1.60;;;26.40;60.60;;;;;;10432739;28;20114;-41
2023/09/24 17:10:26;;;;;;;7.78;1.95;;;26.40;61.50;;;;;;10439434;28;20515;-37
2023/09/24 17:15:28;;;;;;;3.88;1.73;;;26.40;61.50;;;;;;10440581;28;20148;-36
2023/09/24 17:20:30;;;;;;;15.77;1.95;;;26.20;62.50;;;;;;10427456;28;20084;-39
2023/09/24 17:25:33;;;;;;;2.47;1.08;;;26.30;64.00;;;;;;10430553;28;20572;-31
2023/09/24 17:30:39;;;;;;;5.68;1.65;;;26.30;62.80;;;;;;10428754;28;20160;-39
2023/09/24 17:35:41;;;;;;;2.65;1.30;;;26.20;62.20;;;;;;10424289;28;20616;-42
2023/09/24 17:40:44;;;;;;;4.78;1.95;;;26.20;62.30;;;;;;10426394;28;20363;-41
2023/09/24 17:45:57;;;;;;;4.80;1.50;;;26.20;63.50;;;;;;10439580;28;20051;-44
2023/09/24 17:50:59;;;;;;;4.65;1.50;;;26.10;62.30;;;;;;10441099;28;20132;-41
2023/09/24 17:56:03;;;;;;;2.28;1.23;;;25.90;63.30;;;;;;10444861;28;20149;-34
2023/09/24 18:01:06;;;;;;;2.53;1.10;;;26.00;62.70;;;;;;10454325;28;20044;-37
2023/09/24 18:06:07;;;;;;;4.03;1.20;;;25.90;62.80;;;;;;10445902;28;20153;-43
2023/09/24 18:11:11;;;;;;;4.00;1.38;;;25.80;62.90;;;;;;10448229;28;20136;-43
2023/09/24 18:16:13;;;;;;;3.30;1.75;;;25.70;63.70;;;;;;10443169;28;20040;-36
2023/09/24 18:21:18;;;;;;;3.22;1.10;;;25.50;63.40;;;;;;10449443;28;20110;-36
2023/09/24 18:26:21;;;;;;;2.85;1.10;;;25.70;63.40;;;;;;10444006;28;20045;-33
2023/09/24 18:31:23;;;;;;;3.40;1.40;;;25.60;63.40;;;;;;10448762;28;20095;-44
2023/09/24 18:36:25;;;;;;;2.53;1.20;;;25.50;63.30;;;;;;10439475;28;20114;-36
2023/09/24 18:41:28;;;;;;;3.63;1.42;;;25.50;63.40;;;;;;10447516;28;20048;-37
2023/09/24 18:46:30;;;;;;;2.90;1.30;;;25.50;63.70;;;;;;10446453;28;20057;-46
2023/09/24 18:51:32;;;;;;;2.65;1.35;;;25.50;63.80;;;;;;10438183;28;20056;-36
2023/09/24 18:56:35;;;;;;;3.22;1.25;;;25.40;63.80;;;;;;10441664;28;20087;-39
2023/09/24 19:01:37;;;;;;;4.38;1.50;;;25.30;63.80;;;;;;10440329;28;20123;-39
2023/09/24 19:06:39;;;;;;;;;;;25.30;63.90;;;;;;10432794;28;20148;-42
2023/09/24 19:11:42;;;;;;;5.40;1.33;;;25.20;64.20;;;;;;10435246;28;19925;-39
2023/09/24 19:16:44;;;;;;;3.63;1.13;;;25.20;64.30;;;;;;10430364;28;20076;-43
2023/09/24 19:21:46;;;;;;;;;;;25.10;64.20;;;;;;10439044;28;20044;-42
2023/09/24 19:26:52;;;;;;;8.48;2.35;;;25.10;64.20;;;;;;10440773;28;20023;-37
2023/09/24 19:31:54;;;;;;;2.25;1.17;;;25.10;64.40;;;;;;10432206;28;20049;-40
2023/09/24 19:36:56;;;;;;;;;;;25.00;64.40;;;;;;10440344;28;20061;-45
2023/09/24 19:41:59;;;;;;;4.75;1.38;;;25.00;64.50;;;;;;10432631;28;20377;-38
2023/09/24 19:47:01;;;;;;;4.53;1.42;;;25.00;64.60;;;;;;10427969;28;20617;-46
2023/09/24 19:52:03;;;;;;;2.97;1.25;;;24.90;64.70;;;;;;10433729;28;20056;-38
2023/09/24 19:57:07;;;;;;;3.97;1.15;;;24.90;64.70;;;;;;10445889;28;20469;-40
2023/09/24 20:02:09;;;;;;;4.82;1.10;;;24.80;64.70;;;;;;10437796;28;20087;-34
2023/09/24 20:07:11;;;;;;;;;;;24.80;64.90;;;;;;10433720;28;20060;-39
2023/09/24 20:12:14;;;;;;;4.05;1.00;;;24.70;64.80;;;;;;10443135;28;20106;-36
2023/09/24 20:17:16;;;;;;;2.03;1.15;;;24.70;64.80;;;;;;10453636;28;20080;-33
2023/09/24 20:22:17;;;;;;;;;;;24.70;64.90;;;;;;10453426;28;20045;-39
2023/09/24 20:27:21;;;;;;;3.75;1.00;;;24.60;65.00;;;;;;10455248;28;19921;-38
2023/09/24 20:32:23;;;;;;;6.45;1.20;;;24.60;65.10;;;;;;10459933;28;20076;-36
2023/09/24 20:37:25;;;;;;;3.70;1.27;;;24.50;64.80;;;;;;10446449;28;20099;-48
2023/09/24 20:42:28;;;;;;;2.97;1.20;;;24.50;65.00;;;;;;10464713;28;20041;-41
2023/09/24 20:47:32;;;;;;;2.45;1.10;;;24.30;65.10;;;;;;10465348;28;20057;-49
2023/09/24 20:52:34;;;;;;;3.35;1.25;;;24.40;65.30;;;;;;10443085;28;20037;-43
2023/09/24 20:57:38;;;;;;;;;;;24.40;65.30;;;;;;10443599;28;20049;-37
2023/09/24 21:02:39;;;;;;;2.80;1.30;;;24.30;65.30;;;;;;10462741;28;19927;-41
2023/09/24 21:07:42;;;;;;;;;;;24.30;65.30;;;;;;10447507;28;20040;-37
2023/09/24 21:12:45;;;;;;;2.00;1.20;;;24.20;65.20;;;;;;10450879;28;19920;-39
2023/09/24 21:17:47;;;;;;;1.98;0.90;;;24.20;65.60;;;;;;10448629;28;20504;-34
2023/09/24 21:22:49;;;;;;;4.28;1.17;;;24.20;65.50;;;;;;10453173;28;20048;-39
2023/09/24 21:27:52;;;;;;;2.95;1.08;;;24.10;65.50;;;;;;10444122;28;20087;-36
2023/09/24 21:32:54;;;;;;;2.58;1.13;;;24.10;65.50;;;;;;10440481;28;20144;-37
2023/09/24 21:37:56;;;;;;;2.75;1.20;;;24.10;65.50;;;;;;10440974;28;20053;-36
2023/09/24 21:42:59;;;;;;;;;;;24.00;65.60;;;;;;10436399;28;20053;-42
2023/09/24 21:48:01;;;;;;;2.15;1.10;;;24.10;65.60;;;;;;10429322;28;20006;-36
2023/09/24 21:53:03;;;;;;;;;;;24.00;65.70;;;;;;10450315;28;20053;-40
2023/09/24 21:58:06;;;;;;;2.75;1.30;;;24.00;65.70;;;;;;10431895;28;19985;-42
2023/09/24 22:03:08;;;;;;;2.30;1.27;;;24.00;65.60;;;;;;10439406;28;20041;-36
2023/09/24 22:08:10;;;;;;;;;;;24.00;65.70;;;;;;10442119;28;20475;-39
2023/09/24 22:13:13;;;;;;;3.78;1.20;;;23.90;65.50;;;;;;10453897;28;19928;-34
2023/09/24 22:18:15;;;;;;;3.13;1.70;;;23.90;65.60;;;;;;10443104;28;20095;-40
2023/09/24 22:23:17;;;;;;;;;;;23.70;66.00;;;;;;10444592;28;20151;-42
2023/09/24 22:28:20;;;;;;;2.10;1.20;;;23.80;65.70;;;;;;10437483;28;19982;-39
2023/09/24 22:33:22;;;;;;;2.08;1.10;;;23.70;65.60;;;;;;10432571;28;20501;-34
2023/09/24 22:38:24;;;;;;;1.70;1.10;;;23.70;65.70;;;;;;10442270;28;20505;-39
2023/09/24 22:43:27;;;;;;;2.78;1.38;;;23.70;65.60;;;;;;10434610;28;20073;-33
2023/09/24 22:48:29;;;;;;;2.25;1.10;;;23.70;65.60;;;;;;10435693;28;20466;-35
2023/09/24 22:53:31;;;;;;;;;;;23.60;65.80;;;;;;10435003;28;20128;-43
2023/09/24 22:58:34;;;;;;;2.30;1.30;;;23.60;65.60;;;;;;10436582;28;19956;-40
2023/09/24 23:03:36;;;;;;;1.98;1.17;;;23.50;65.40;;;;;;10454141;28;20036;-38
2023/09/24 23:08:38;;;;;;;;;;;23.50;65.80;;;;;;10446030;28;20644;-37
2023/09/24 23:13:41;;;;;;;2.20;1.23;;;23.30;65.90;;;;;;10443759;28;20356;-38
2023/09/24 23:18:43;;;;;;;1.83;1.30;;;23.30;66.00;;;;;;10444193;28;20546;-36
2023/09/24 23:23:44;;;;;;;1.48;1.15;;;23.40;65.90;;;;;;10441101;28;20494;-42
2023/09/24 23:28:48;;;;;;;1.63;1.10;;;23.40;66.00;;;;;;10446173;28;20463;-35
2023/09/24 23:33:50;;;;;;;2.28;1.08;;;23.40;65.60;;;;;;10461915;28;20049;-35
2023/09/24 23:38:52;;;;;;;1.65;1.10;;;23.40;65.90;;;;;;10460835;28;20687;-37
2023/09/24 23:43:55;;;;;;;2.13;1.35;;;23.40;65.90;;;;;;10444321;28;20107;-35
2023/09/24 23:48:57;;;;;;;1.42;1.15;;;23.40;65.80;;;;;;10454590;28;20053;-42
2023/09/24 23:53:59;;;;;;;;;;;23.40;65.30;;;;;;10453598;28;20048;-38
2023/09/24 23:59:03;;;;;;;2.80;1.30;;;23.40;65.60;;;;;;10451390;28;20407;-40
